Time;durP1;ratioP1;P1;durP2;ratioP2;P2;SDS_P1;SDS_P2;PMS_P1;PMS_P2;Temp;Humidity;BMP_temperature;BMP_pressure;BME280_temperature;BME280_humidity;BME280_pressure;Samples;Min_cycle;Max_cycle;Signal;HPM_P1;HPM_P2
2023/07/07 00:00:59;;;;;;;3.38;1.67;;;13.90;99.90;;;;;;4954460;28;20098;-65
2023/07/07 00:03:24;;;;;;;5.60;1.73;;;13.90;99.90;;;;;;4952623;28;20042;-65
2023/07/07 00:05:50;;;;;;;8.80;1.95;;;13.80;99.90;;;;;;4964994;28;20027;-65
2023/07/07 00:08:15;;;;;;;5.75;1.73;;;13.80;99.90;;;;;;4958984;28;20031;-66
2023/07/07 00:10:48;;;;;;;1.98;1.50;;;13.70;99.90;;;;;;4960588;28;20102;-64
2023/07/07 00:13:15;;;;;;;6.07;2.03;;;13.60;99.90;;;;;;4948573;28;20114;-66
2023/07/07 00:15:47;;;;;;;3.10;1.80;;;13.60;99.90;;;;;;4957340;28;20035;-65
2023/07/07 00:18:15;;;;;;;4.82;2.65;;;13.50;99.90;;;;;;4960984;28;20031;-65
2023/07/07 00:20:41;;;;;;;3.97;1.40;;;13.40;99.90;;;;;;4958970;28;20089;-64
2023/07/07 00:23:08;;;;;;;4.05;2.00;;;13.40;99.90;;;;;;4955719;28;20050;-65
2023/07/07 00:25:33;;;;;;;3.70;1.80;;;13.40;99.90;;;;;;4952980;28;20035;-64
2023/07/07 00:27:59;;;;;;;3.22;1.67;;;13.40;99.90;;;;;;4953634;28;20519;-65
2023/07/07 00:30:24;;;;;;;9.65;2.08;;;13.40;99.90;;;;;;4956334;28;20023;-65
2023/07/07 00:32:50;;;;;;;5.00;1.80;;;13.50;99.90;;;;;;4933080;28;20747;-65
2023/07/07 00:35:16;;;;;;;4.53;1.85;;;13.50;99.90;;;;;;4955841;28;20054;-63
2023/07/07 00:37:43;;;;;;;5.10;1.50;;;13.40;99.90;;;;;;4957000;28;20419;-65
2023/07/07 00:40:09;;;;;;;3.15;1.63;;;13.40;99.90;;;;;;4956242;28;20031;-64
2023/07/07 00:42:35;;;;;;;5.10;1.63;;;13.40;99.90;;;;;;4960498;28;20113;-66
2023/07/07 00:45:17;;;;;;;2.70;1.50;;;13.40;99.90;;;;;;4960699;28;20490;-62
2023/07/07 00:47:51;;;;;;;4.75;2.40;;;13.30;99.90;;;;;;4956193;28;20027;-61
2023/07/07 00:50:20;;;;;;;4.07;1.88;;;13.30;99.90;;;;;;4953437;28;20019;-65
2023/07/07 00:52:45;;;;;;;3.08;1.58;;;13.30;99.90;;;;;;4954018;28;20357;-65
2023/07/07 00:55:17;;;;;;;4.75;1.58;;;13.20;99.90;;;;;;4955720;28;20038;-65
2023/07/07 00:57:43;;;;;;;3.45;1.60;;;13.20;99.90;;;;;;4956336;28;20027;-62
2023/07/07 01:00:11;;;;;;;4.07;1.70;;;13.10;99.90;;;;;;4956538;28;20098;-64
2023/07/07 01:02:37;;;;;;;3.03;1.55;;;13.00;99.90;;;;;;4955508;28;20126;-64
2023/07/07 01:05:05;;;;;;;7.85;1.77;;;13.00;99.90;;;;;;4955348;28;20114;-64
2023/07/07 01:07:42;;;;;;;4.85;2.15;;;12.90;99.90;;;;;;4961180;28;20095;-66
2023/07/07 01:10:08;;;;;;;4.53;1.90;;;12.80;99.90;;;;;;4957102;28;20042;-66
2023/07/07 01:12:34;;;;;;;5.63;1.77;;;12.80;99.90;;;;;;4958962;28;20024;-65
2023/07/07 01:15:02;;;;;;;5.00;2.22;;;12.80;99.90;;;;;;4956888;28;20038;-65
2023/07/07 01:17:55;;;;;;;5.60;2.15;;;12.80;99.90;;;;;;4956881;28;20031;-65
2023/07/07 01:20:52;;;;;;;2.90;1.67;;;12.70;99.90;;;;;;4961407;28;20027;-65
2023/07/07 01:23:32;;;;;;;5.65;2.17;;;12.70;99.90;;;;;;4958360;28;20481;-65
2023/07/07 01:26:10;;;;;;;13.48;2.13;;;12.60;99.90;;;;;;4961913;28;20026;-66
2023/07/07 01:29:08;;;;;;;3.35;1.65;;;12.60;99.90;;;;;;4947682;28;20039;-66
2023/07/07 01:31:42;;;;;;;9.45;2.20;;;12.60;99.90;;;;;;4954153;28;20027;-65
2023/07/07 01:34:13;;;;;;;;;;;12.60;99.90;;;;;;4932020;28;20039;-64
2023/07/07 01:36:38;;;;;;;5.00;2.38;;;12.60;99.90;;;;;;4965179;28;19916;-64
2023/07/07 01:39:05;;;;;;;5.50;1.70;;;12.60;99.90;;;;;;4966526;28;20038;-66
2023/07/07 01:41:44;;;;;;;3.03;1.73;;;12.60;99.90;;;;;;4970542;28;20427;-66
2023/07/07 01:44:27;;;;;;;3.83;2.10;;;12.60;99.90;;;;;;4956393;28;20038;-65
2023/07/07 01:47:07;;;;;;;3.58;1.80;;;12.60;99.90;;;;;;4962895;28;20023;-66
2023/07/07 01:49:48;;;;;;;6.75;2.30;;;12.50;99.90;;;;;;4962865;28;20035;-65
2023/07/07 01:52:26;;;;;;;5.80;1.92;;;12.40;99.90;;;;;;4957915;28;20046;-65
2023/07/07 01:55:04;;;;;;;4.20;1.90;;;12.40;99.90;;;;;;4971368;28;20114;-66
2023/07/07 01:57:31;;;;;;;3.58;2.10;;;12.40;99.90;;;;;;4966255;28;20026;-64
2023/07/07 01:59:58;;;;;;;3.20;1.90;;;12.40;99.90;;;;;;4956532;28;20042;-65
2023/07/07 02:02:25;;;;;;;3.80;1.70;;;12.30;99.90;;;;;;4960407;28;20848;-66
2023/07/07 02:04:50;;;;;;;7.82;1.85;;;12.20;99.90;;;;;;4967162;28;20073;-66
2023/07/07 02:07:16;;;;;;;6.75;1.70;;;12.20;99.90;;;;;;4967470;28;20070;-65
2023/07/07 02:09:42;;;;;;;4.40;2.38;;;12.20;99.90;;;;;;4962965;28;20031;-61
2023/07/07 02:12:08;;;;;;;4.22;2.05;;;12.20;99.90;;;;;;4964871;28;20649;-65
2023/07/07 02:14:33;;;;;;;4.13;2.05;;;12.20;99.90;;;;;;4961333;28;20114;-66
2023/07/07 02:16:59;;;;;;;9.40;2.50;;;12.20;99.90;;;;;;4964004;28;20110;-66
2023/07/07 02:19:24;;;;;;;4.07;2.03;;;12.20;99.90;;;;;;4963800;28;20027;-65
2023/07/07 02:21:51;;;;;;;3.85;1.80;;;12.20;99.90;;;;;;4962519;28;20042;-66
2023/07/07 02:24:16;;;;;;;3.35;1.60;;;12.10;99.90;;;;;;4961624;28;20031;-65
2023/07/07 02:26:42;;;;;;;5.22;2.00;;;12.20;99.90;;;;;;4967524;28;20035;-65
2023/07/07 02:29:07;;;;;;;6.15;2.03;;;12.20;99.90;;;;;;4956704;28;20106;-65
2023/07/07 02:31:33;;;;;;;4.53;2.00;;;12.20;99.90;;;;;;4955917;28;20027;-66
2023/07/07 02:33:58;;;;;;;3.88;2.05;;;12.20;99.90;;;;;;4933258;28;20078;-66
2023/07/07 02:36:27;;;;;;;8.07;2.30;;;12.20;99.90;;;;;;4954071;28;20030;-66
2023/07/07 02:38:53;;;;;;;3.15;1.52;;;12.20;99.90;;;;;;4950660;28;20031;-66
2023/07/07 02:41:19;;;;;;;2.88;1.70;;;12.20;99.90;;;;;;4952733;28;20027;-66
2023/07/07 02:43:45;;;;;;;2.95;1.60;;;12.20;99.90;;;;;;4952703;28;20031;-63
2023/07/07 02:46:11;;;;;;;4.18;1.92;;;12.20;99.90;;;;;;4951690;28;20157;-66
2023/07/07 02:48:37;;;;;;;4.43;1.90;;;12.20;99.90;;;;;;4951715;28;20713;-62
2023/07/07 02:51:05;;;;;;;3.83;1.88;;;12.20;99.90;;;;;;4953054;28;20024;-65
2023/07/07 02:53:34;;;;;;;5.03;1.80;;;12.20;99.90;;;;;;4952080;28;20594;-64
2023/07/07 02:56:00;;;;;;;3.05;1.90;;;12.20;99.90;;;;;;4954339;28;20505;-67
2023/07/07 02:58:26;;;;;;;3.40;1.77;;;12.10;99.90;;;;;;4961471;28;20037;-66
2023/07/07 03:00:52;;;;;;;4.03;1.35;;;12.10;99.90;;;;;;4966158;28;20035;-66
2023/07/07 03:03:19;;;;;;;3.00;1.75;;;12.10;99.90;;;;;;4956850;28;20551;-66
2023/07/07 03:05:45;;;;;;;4.55;2.00;;;12.10;99.90;;;;;;4967110;28;20043;-65
2023/07/07 03:08:11;;;;;;;7.88;1.88;;;12.10;99.90;;;;;;4965165;28;20448;-65
2023/07/07 03:10:39;;;;;;;5.30;2.08;;;12.10;99.90;;;;;;4967761;28;20614;-65
2023/07/07 03:13:05;;;;;;;4.55;1.70;;;12.20;99.90;;;;;;4968731;28;20065;-66
2023/07/07 03:15:41;;;;;;;7.30;1.83;;;12.20;99.90;;;;;;4962939;28;20027;-66
2023/07/07 03:18:09;;;;;;;3.53;1.35;;;12.10;99.90;;;;;;4959148;28;20023;-66
2023/07/07 03:20:35;;;;;;;5.60;1.92;;;12.10;99.90;;;;;;4962273;28;20035;-66
2023/07/07 03:23:02;;;;;;;4.70;1.60;;;12.00;99.90;;;;;;4958779;28;20564;-65
2023/07/07 03:25:29;;;;;;;5.75;1.90;;;12.00;99.90;;;;;;4962928;28;20122;-65
2023/07/07 03:27:55;;;;;;;4.07;1.98;;;12.00;99.90;;;;;;4963811;28;20110;-65
2023/07/07 03:30:21;;;;;;;5.47;2.20;;;12.00;99.90;;;;;;4953880;28;20105;-66
2023/07/07 03:32:46;;;;;;;4.85;1.77;;;12.00;99.90;;;;;;4925116;28;20027;-65
2023/07/07 03:35:12;;;;;;;2.70;1.27;;;12.10;99.90;;;;;;4952983;28;20559;-66
2023/07/07 03:37:38;;;;;;;4.53;1.90;;;12.00;99.90;;;;;;4952852;28;20065;-65
2023/07/07 03:40:06;;;;;;;2.95;1.70;;;12.00;99.90;;;;;;4953626;28;20067;-66
2023/07/07 03:42:32;;;;;;;8.00;2.35;;;12.00;99.90;;;;;;4952825;28;20055;-64
2023/07/07 03:44:58;;;;;;;5.25;1.90;;;12.00;99.90;;;;;;4952959;28;20473;-65
2023/07/07 03:47:24;;;;;;;3.38;1.85;;;12.00;99.90;;;;;;4952161;28;20063;-63
2023/07/07 03:49:50;;;;;;;3.95;2.00;;;12.00;99.90;;;;;;4954364;28;20077;-65
2023/07/07 03:52:16;;;;;;;2.97;1.80;;;12.00;99.90;;;;;;4953913;28;20036;-66
2023/07/07 03:54:41;;;;;;;6.70;2.10;;;12.00;99.90;;;;;;4951727;28;20547;-64
2023/07/07 03:57:08;;;;;;;6.07;2.08;;;12.00;99.90;;;;;;4955232;28;20035;-65
2023/07/07 03:59:34;;;;;;;8.75;1.80;;;12.00;99.90;;;;;;4956986;28;20032;-64
2023/07/07 04:01:59;;;;;;;2.63;1.63;;;12.00;99.90;;;;;;4955847;28;20099;-65
2023/07/07 04:04:25;;;;;;;5.00;1.85;;;12.10;99.90;;;;;;4965608;28;20038;-65
2023/07/07 04:06:55;;;;;;;4.75;1.90;;;12.10;99.90;;;;;;4967800;28;20109;-66
2023/07/07 04:09:21;;;;;;;4.57;1.50;;;12.10;99.90;;;;;;4963716;28;20861;-66
2023/07/07 04:11:46;;;;;;;3.30;1.67;;;12.20;99.90;;;;;;4972891;28;20027;-63
2023/07/07 04:14:12;;;;;;;3.78;1.95;;;12.20;99.90;;;;;;4962353;28;20034;-64
2023/07/07 04:16:37;;;;;;;4.25;2.33;;;12.20;99.90;;;;;;4967215;28;20031;-65
2023/07/07 04:19:03;;;;;;;5.07;1.83;;;12.30;99.90;;;;;;4959646;28;20034;-65
2023/07/07 04:21:30;;;;;;;2.67;1.73;;;12.20;99.90;;;;;;4967928;28;20042;-65
2023/07/07 04:23:58;;;;;;;2.85;1.63;;;12.30;99.90;;;;;;4965583;28;20023;-66
2023/07/07 04:26:26;;;;;;;4.63;1.77;;;12.30;99.90;;;;;;4962369;28;20090;-66
2023/07/07 04:28:54;;;;;;;4.78;1.60;;;12.40;99.90;;;;;;4967295;28;20093;-66
2023/07/07 04:31:23;;;;;;;7.32;2.08;;;12.40;99.90;;;;;;4958477;28;21034;-65
2023/07/07 04:33:49;;;;;;;3.85;1.83;;;12.50;99.90;;;;;;4939114;28;21916;-65
2023/07/07 04:36:15;;;;;;;3.42;1.50;;;12.60;99.90;;;;;;4968317;28;20532;-65
2023/07/07 04:38:41;;;;;;;2.42;1.48;;;13.10;99.90;;;;;;4962134;28;20035;-66
2023/07/07 04:41:25;;;;;;;3.60;1.98;;;14.50;99.90;;;;;;4968849;28;20382;-65
2023/07/07 04:43:56;;;;;;;2.85;1.52;;;16.20;99.90;;;;;;4963111;28;20050;-65
2023/07/07 04:46:29;;;;;;;4.00;2.13;;;17.70;99.90;;;;;;4965256;28;20121;-65
2023/07/07 04:48:55;;;;;;;6.22;2.08;;;18.70;98.70;;;;;;4965513;28;20030;-66
2023/07/07 04:51:21;;;;;;;3.03;1.75;;;19.70;97.20;;;;;;4961457;28;20378;-67
2023/07/07 04:53:47;;;;;;;3.00;1.50;;;20.60;94.20;;;;;;4964296;28;20027;-66
2023/07/07 04:56:23;;;;;;;2.72;1.40;;;21.20;93.60;;;;;;4970436;28;20117;-67
2023/07/07 04:58:50;;;;;;;2.20;1.42;;;22.20;91.60;;;;;;4965036;28;20492;-66
2023/07/07 05:01:21;;;;;;;4.55;1.52;;;23.20;88.80;;;;;;4967974;28;20058;-66
2023/07/07 05:03:51;;;;;;;2.33;1.20;;;23.90;85.70;;;;;;4962957;28;20478;-64
2023/07/07 05:06:18;;;;;;;3.83;1.20;;;24.20;84.30;;;;;;4971993;28;20104;-66
2023/07/07 05:08:43;;;;;;;2.28;1.20;;;24.70;82.90;;;;;;4961360;28;20031;-67
2023/07/07 05:11:11;;;;;;;10.00;1.73;;;25.30;80.00;;;;;;4963139;28;20034;-67
2023/07/07 05:13:37;;;;;;;2.58;1.40;;;25.90;77.30;;;;;;4963004;28;20106;-64
2023/07/07 05:16:05;;;;;;;3.17;1.67;;;26.10;77.40;;;;;;4964704;28;20443;-66
2023/07/07 05:18:31;;;;;;;3.25;1.35;;;26.20;76.40;;;;;;4955216;28;20035;-66
2023/07/07 05:20:57;;;;;;;4.40;1.42;;;26.50;75.20;;;;;;4966167;28;20042;-63
2023/07/07 05:23:23;;;;;;;3.03;1.40;;;27.00;74.30;;;;;;4965906;28;20777;-66
2023/07/07 05:25:50;;;;;;;2.35;1.10;;;27.10;73.90;;;;;;4954933;28;20065;-66
2023/07/07 05:28:15;;;;;;;5.32;1.10;;;27.40;73.30;;;;;;4958822;28;20035;-67
2023/07/07 05:30:42;;;;;;;2.90;1.58;;;27.30;73.20;;;;;;4956135;28;20026;-65
2023/07/07 05:33:08;;;;;;;3.40;0.93;;;27.90;72.10;;;;;;4928218;28;20085;-66
2023/07/07 05:35:33;;;;;;;3.38;1.48;;;28.10;71.20;;;;;;4963106;28;20038;-66
2023/07/07 05:38:00;;;;;;;2.58;1.17;;;28.20;69.90;;;;;;4952891;28;20035;-67
2023/07/07 05:40:26;;;;;;;2.38;1.60;;;28.60;69.70;;;;;;4957038;28;20690;-64
2023/07/07 05:42:52;;;;;;;9.15;1.20;;;28.70;69.00;;;;;;4952543;28;20093;-64
2023/07/07 05:45:17;;;;;;;2.47;1.23;;;28.80;68.80;;;;;;4954193;28;20520;-64
2023/07/07 05:47:43;;;;;;;2.10;1.08;;;28.90;68.10;;;;;;4952777;28;20106;-63
2023/07/07 05:50:09;;;;;;;3.17;1.58;;;29.40;67.40;;;;;;4952858;28;20525;-63
2023/07/07 05:52:34;;;;;;;1.02;0.90;;;29.70;66.80;;;;;;4956415;28;20110;-64
2023/07/07 05:55:02;;;;;;;6.18;1.30;;;29.40;67.30;;;;;;4955114;28;20020;-65
2023/07/07 05:57:28;;;;;;;1.85;0.90;;;28.80;67.40;;;;;;4960860;28;20026;-65
2023/07/07 05:59:54;;;;;;;2.65;1.55;;;29.50;66.90;;;;;;4971760;28;20038;-65
2023/07/07 06:02:20;;;;;;;2.90;1.30;;;29.30;66.10;;;;;;4979583;28;20815;-66
2023/07/07 06:04:45;;;;;;;2.58;1.85;;;29.80;65.20;;;;;;4982334;28;20072;-67
2023/07/07 06:07:11;;;;;;;5.07;1.30;;;29.80;64.40;;;;;;4983988;28;20035;-67
2023/07/07 06:09:36;;;;;;;5.47;1.23;;;30.10;66.20;;;;;;4984770;28;20023;-67
2023/07/07 06:12:02;;;;;;;3.03;1.52;;;29.90;65.60;;;;;;4975513;28;20058;-65
2023/07/07 06:14:28;;;;;;;5.03;1.33;;;29.90;66.10;;;;;;4960581;28;20027;-66
2023/07/07 06:16:54;;;;;;;2.60;1.10;;;31.00;65.20;;;;;;4960844;28;20033;-66
2023/07/07 06:19:19;;;;;;;3.05;1.33;;;30.90;64.90;;;;;;4963925;28;20079;-66
2023/07/07 06:21:45;;;;;;;1.63;1.30;;;30.70;65.40;;;;;;4963058;28;20727;-63
2023/07/07 06:24:10;;;;;;;1.95;1.08;;;31.10;63.80;;;;;;4956745;28;20038;-66
2023/07/07 06:26:36;;;;;;;1.63;1.15;;;31.40;63.00;;;;;;4964974;28;20153;-66
2023/07/07 06:29:01;;;;;;;2.15;1.08;;;30.80;62.80;;;;;;4965111;28;20027;-65
2023/07/07 06:31:27;;;;;;;2.78;1.40;;;30.80;61.60;;;;;;4965219;28;20037;-67
2023/07/07 06:33:52;;;;;;;3.28;1.30;;;30.90;61.00;;;;;;4935216;28;20067;-65
2023/07/07 06:36:18;;;;;;;1.13;0.90;;;30.80;61.30;;;;;;4959676;28;20296;-66
2023/07/07 06:38:44;;;;;;;6.57;1.23;;;31.90;61.70;;;;;;4961836;28;20027;-65
2023/07/07 06:41:14;;;;;;;1.50;0.95;;;32.90;61.20;;;;;;4964145;28;20515;-65
2023/07/07 06:43:40;;;;;;;1.90;1.10;;;33.50;57.90;;;;;;4965433;28;20968;-65
2023/07/07 06:46:08;;;;;;;2.15;1.27;;;32.20;59.10;;;;;;4959684;28;20046;-66
2023/07/07 06:48:34;;;;;;;3.33;1.40;;;31.90;59.80;;;;;;4960259;28;20034;-65
2023/07/07 06:50:59;;;;;;;2.78;1.23;;;32.20;60.00;;;;;;4964273;28;20029;-65
2023/07/07 06:53:25;;;;;;;3.35;1.60;;;32.50;58.80;;;;;;4962346;28;20042;-66
2023/07/07 06:55:50;;;;;;;2.28;1.02;;;32.20;60.30;;;;;;4962289;28;20023;-67
2023/07/07 06:58:17;;;;;;;6.18;1.08;;;32.50;60.00;;;;;;4967794;28;20117;-66
2023/07/07 07:00:43;;;;;;;3.40;1.38;;;32.80;59.60;;;;;;4964747;28;20424;-66
2023/07/07 07:03:09;;;;;;;1.88;1.15;;;32.90;59.00;;;;;;4960310;28;20439;-65
2023/07/07 07:05:34;;;;;;;3.08;1.38;;;34.70;58.30;;;;;;4967679;28;20034;-66
2023/07/07 07:08:00;;;;;;;1.92;1.00;;;34.30;57.70;;;;;;4963834;28;20097;-66
2023/07/07 07:10:25;;;;;;;1.95;1.08;;;34.60;56.60;;;;;;4955788;28;20036;-66
2023/07/07 07:12:51;;;;;;;2.97;1.10;;;34.60;57.10;;;;;;4963487;28;20046;-67
2023/07/07 07:15:17;;;;;;;2.63;0.95;;;35.20;55.30;;;;;;4964054;28;20105;-65
2023/07/07 07:17:42;;;;;;;1.88;1.00;;;35.30;55.90;;;;;;4952901;28;20039;-66
2023/07/07 07:20:11;;;;;;;1.05;0.95;;;35.60;55.00;;;;;;4969004;28;20101;-66
2023/07/07 07:22:36;;;;;;;9.50;1.20;;;35.40;56.40;;;;;;4961289;28;20050;-66
2023/07/07 07:25:02;;;;;;;5.60;1.40;;;35.60;55.50;;;;;;4957876;28;20028;-67
2023/07/07 07:27:28;;;;;;;1.20;1.10;;;36.40;54.20;;;;;;4961867;28;20112;-65
2023/07/07 07:29:54;;;;;;;5.45;1.15;;;36.50;54.10;;;;;;4955449;28;20028;-67
2023/07/07 07:32:19;;;;;;;1.95;1.48;;;37.80;53.00;;;;;;4972909;28;20050;-66
2023/07/07 07:34:45;;;;;;;1.25;1.08;;;36.20;53.20;;;;;;4950082;28;20456;-65
2023/07/07 07:37:10;;;;;;;4.63;1.10;;;37.30;54.30;;;;;;4961464;28;20110;-66
2023/07/07 07:39:36;;;;;;;2.30;1.30;;;37.30;53.60;;;;;;4956908;28;20110;-67
2023/07/07 07:42:03;;;;;;;1.35;1.20;;;36.60;52.70;;;;;;4969443;28;20023;-67
2023/07/07 07:44:29;;;;;;;3.60;1.25;;;37.40;52.40;;;;;;4966753;28;20089;-66
2023/07/07 07:46:56;;;;;;;2.22;1.40;;;36.90;52.00;;;;;;4965797;28;20106;-65
2023/07/07 07:49:23;;;;;;;3.45;1.40;;;38.10;51.90;;;;;;4961154;28;20022;-66
2023/07/07 07:51:49;;;;;;;1.42;1.00;;;38.40;50.00;;;;;;4965078;28;20428;-66
2023/07/07 07:54:18;;;;;;;1.55;1.23;;;37.60;51.10;;;;;;4966919;28;20023;-65
2023/07/07 07:56:45;;;;;;;2.72;1.58;;;37.50;50.20;;;;;;4955458;28;20030;-65
2023/07/07 07:59:11;;;;;;;1.05;0.95;;;36.50;50.90;;;;;;4953027;28;20035;-66
2023/07/07 08:01:36;;;;;;;3.00;1.20;;;36.20;52.70;;;;;;4962426;28;20094;-66
2023/07/07 08:04:06;;;;;;;3.28;1.60;;;36.70;51.80;;;;;;4960063;28;20034;-66
2023/07/07 08:06:32;;;;;;;3.95;1.42;;;37.60;49.50;;;;;;4962499;28;20043;-65
2023/07/07 08:08:58;;;;;;;2.25;1.25;;;37.80;49.80;;;;;;4966734;28;20067;-67
2023/07/07 08:11:46;;;;;;;2.58;1.40;;;37.40;48.50;;;;;;4954125;28;20050;-68
2023/07/07 08:14:21;;;;;;;5.10;1.27;;;36.50;50.30;;;;;;4958580;28;20493;-67
2023/07/07 08:16:48;;;;;;;2.83;1.30;;;35.90;49.90;;;;;;4966303;28;20035;-66
2023/07/07 08:19:14;;;;;;;3.15;1.60;;;35.80;50.30;;;;;;4964918;28;20035;-65
2023/07/07 08:21:40;;;;;;;1.80;1.27;;;37.00;50.40;;;;;;4960027;28;20600;-68
2023/07/07 08:24:06;;;;;;;5.97;1.50;;;36.90;51.80;;;;;;4961596;28;20035;-65
2023/07/07 08:26:32;;;;;;;1.67;1.35;;;37.40;49.10;;;;;;4960314;28;20039;-66
2023/07/07 08:28:58;;;;;;;2.78;1.30;;;37.80;48.20;;;;;;4955784;28;20118;-65
2023/07/07 08:31:24;;;;;;;2.47;1.30;;;37.80;49.90;;;;;;4960890;28;20106;-66
2023/07/07 08:33:50;;;;;;;1.52;1.42;;;37.90;48.60;;;;;;4942412;28;20528;-64
2023/07/07 08:36:16;;;;;;;2.17;1.30;;;37.50;47.40;;;;;;4959756;28;20412;-66
2023/07/07 08:38:41;;;;;;;4.57;1.48;;;36.70;48.60;;;;;;4954646;28;20027;-65
2023/07/07 08:41:07;;;;;;;2.17;1.50;;;36.90;49.40;;;;;;4960448;28;20035;-66
2023/07/07 08:43:33;;;;;;;3.30;1.50;;;37.40;47.50;;;;;;4959871;28;20465;-67
2023/07/07 08:46:31;;;;;;;3.42;1.40;;;37.20;48.20;;;;;;4957882;28;20111;-65
2023/07/07 08:49:23;;;;;;;2.72;1.50;;;37.40;47.90;;;;;;4962539;28;20106;-67
2023/07/07 08:52:12;;;;;;;;;;;37.10;47.40;;;;;;4956802;28;20134;-65
2023/07/07 08:54:50;;;;;;;3.80;1.38;;;37.10;49.00;;;;;;4946049;28;19913;-65
2023/07/07 08:57:18;;;;;;;2.08;1.52;;;37.60;49.30;;;;;;4965731;28;20053;-67
2023/07/07 08:59:46;;;;;;;3.53;1.20;;;37.70;48.00;;;;;;4963847;28;20027;-66
2023/07/07 09:02:39;;;;;;;7.78;1.58;;;37.20;46.20;;;;;;4956386;28;20070;-66
2023/07/07 09:05:30;;;;;;;2.58;1.35;;;37.50;48.60;;;;;;4964863;28;20458;-67
2023/07/07 09:08:14;;;;;;;3.83;2.03;;;38.20;46.40;;;;;;4962485;28;20031;-66
2023/07/07 09:11:07;;;;;;;1.73;1.35;;;37.90;46.60;;;;;;4965615;28;20055;-66
2023/07/07 09:13:35;;;;;;;7.40;1.48;;;38.10;47.10;;;;;;4956118;28;20074;-66
2023/07/07 09:16:14;;;;;;;3.58;1.35;;;38.30;45.30;;;;;;4964367;28;20023;-67
2023/07/07 09:18:48;;;;;;;4.22;1.50;;;38.00;45.70;;;;;;4958395;28;20027;-65
2023/07/07 09:21:49;;;;;;;4.13;1.90;;;37.90;47.20;;;;;;4953038;28;20039;-66
2023/07/07 09:24:20;;;;;;;5.18;1.50;;;37.20;45.30;;;;;;4954675;28;20042;-66
2023/07/07 09:26:48;;;;;;;1.90;1.30;;;37.20;46.30;;;;;;4965708;28;20041;-66
2023/07/07 09:29:34;;;;;;;3.90;1.50;;;36.80;46.50;;;;;;4962319;28;20035;-65
2023/07/07 09:32:02;;;;;;;4.88;1.98;;;36.10;46.90;;;;;;4952183;28;20274;-66
2023/07/07 09:34:29;;;;;;;2.80;1.42;;;35.70;46.30;;;;;;4959920;28;20023;-67
2023/07/07 09:37:04;;;;;;;1.98;1.20;;;35.70;48.20;;;;;;4953594;28;20031;-66
2023/07/07 09:39:45;;;;;;;3.58;1.60;;;35.70;48.30;;;;;;4954405;28;20038;-65
2023/07/07 09:42:25;;;;;;;4.20;1.70;;;36.40;48.20;;;;;;4959590;28;20136;-67
2023/07/07 09:45:01;;;;;;;2.00;1.20;;;36.50;45.60;;;;;;4957124;28;20022;-67
2023/07/07 09:47:32;;;;;;;1.92;1.60;;;36.10;45.80;;;;;;4959465;28;20038;-67
2023/07/07 09:50:02;;;;;;;2.90;1.50;;;37.00;47.00;;;;;;4960779;28;20424;-65
2023/07/07 09:52:46;;;;;;;3.47;1.70;;;37.30;46.60;;;;;;4954310;28;20069;-65
2023/07/07 09:55:29;;;;;;;1.90;1.42;;;37.10;45.10;;;;;;4963940;28;20042;-66
2023/07/07 09:58:16;;;;;;;2.08;1.58;;;36.70;44.70;;;;;;4970692;28;20030;-67
2023/07/07 10:00:47;;;;;;;3.72;1.60;;;36.40;46.30;;;;;;4965005;28;20109;-68
2023/07/07 10:03:35;;;;;;;2.78;1.52;;;36.50;46.00;;;;;;4960994;28;20035;-67
2023/07/07 10:06:33;;;;;;;2.03;1.50;;;36.10;47.60;;;;;;4956101;28;20023;-66
2023/07/07 10:08:59;;;;;;;2.00;1.25;;;35.60;47.20;;;;;;4956713;28;20978;-66
2023/07/07 10:11:31;;;;;;;5.45;1.70;;;35.00;47.90;;;;;;4963694;28;20058;-67
2023/07/07 10:13:57;;;;;;;2.67;1.70;;;34.70;47.40;;;;;;4966685;28;20035;-66
2023/07/07 10:16:34;;;;;;;1.67;1.30;;;34.50;48.10;;;;;;4965656;28;20523;-65
2023/07/07 10:19:07;;;;;;;3.42;1.42;;;34.20;48.00;;;;;;4960983;28;20707;-67
2023/07/07 10:21:34;;;;;;;4.03;1.48;;;33.80;49.80;;;;;;4962259;28;20034;-66
2023/07/07 10:24:00;;;;;;;2.88;1.58;;;33.60;50.70;;;;;;4969147;28;20019;-66
2023/07/07 10:26:25;;;;;;;2.85;1.17;;;33.50;49.10;;;;;;4963740;28;20037;-66
2023/07/07 10:28:54;;;;;;;3.17;1.48;;;33.20;48.90;;;;;;4959452;28;20118;-65
2023/07/07 10:31:23;;;;;;;3.20;1.90;;;32.90;50.10;;;;;;4969343;28;20046;-66
2023/07/07 10:33:54;;;;;;;2.25;1.23;;;32.60;49.80;;;;;;4964329;28;20536;-63
2023/07/07 10:36:31;;;;;;;5.25;1.60;;;32.40;49.50;;;;;;4960876;28;20035;-64
2023/07/07 10:38:57;;;;;;;1.95;1.50;;;32.50;48.40;;;;;;4964543;28;20046;-65
2023/07/07 10:41:24;;;;;;;4.22;1.75;;;32.20;47.80;;;;;;4965926;28;20050;-65
2023/07/07 10:43:49;;;;;;;2.72;1.30;;;31.90;47.30;;;;;;4962118;28;20028;-63
2023/07/07 10:46:15;;;;;;;3.55;1.70;;;31.80;47.70;;;;;;4956338;28;20107;-65
2023/07/07 10:48:44;;;;;;;3.10;1.40;;;31.90;49.50;;;;;;4958860;28;20050;-65
2023/07/07 10:51:12;;;;;;;2.75;1.67;;;31.80;50.50;;;;;;4968033;28;20031;-66
2023/07/07 10:54:04;;;;;;;5.70;1.50;;;31.90;50.50;;;;;;4955034;28;20034;-66
2023/07/07 10:56:39;;;;;;;7.72;1.58;;;31.80;48.60;;;;;;4963355;28;20035;-65
2023/07/07 10:59:10;;;;;;;5.03;1.38;;;31.20;49.00;;;;;;4964877;28;20050;-65
2023/07/07 11:01:46;;;;;;;2.28;1.50;;;30.90;48.20;;;;;;4965491;28;20571;-64
2023/07/07 11:04:33;;;;;;;2.88;1.38;;;30.70;49.70;;;;;;4966070;28;20026;-65
2023/07/07 11:07:15;;;;;;;3.88;1.80;;;30.60;50.80;;;;;;4963888;28;20132;-65
2023/07/07 11:10:06;;;;;;;2.22;1.38;;;30.70;50.70;;;;;;4964509;28;20027;-65
2023/07/07 11:12:59;;;;;;;4.28;1.50;;;30.80;50.80;;;;;;4962006;28;20409;-67
2023/07/07 11:15:33;;;;;;;1.85;1.20;;;30.80;51.20;;;;;;4960761;28;20026;-63
2023/07/07 11:18:01;;;;;;;2.95;1.30;;;31.00;49.30;;;;;;4956011;28;20027;-66
2023/07/07 11:20:47;;;;;;;2.85;1.10;;;31.00;48.80;;;;;;4964423;28;20449;-65
2023/07/07 11:23:30;;;;;;;1.52;1.10;;;30.80;50.20;;;;;;4956083;28;20500;-67
2023/07/07 11:26:11;;;;;;;1.95;1.30;;;30.90;50.40;;;;;;4958770;28;20094;-65
2023/07/07 11:28:52;;;;;;;2.35;1.25;;;31.00;49.60;;;;;;4961072;28;20109;-67
2023/07/07 11:31:38;;;;;;;2.55;1.25;;;31.10;48.10;;;;;;4962155;28;20035;-66
2023/07/07 11:34:28;;;;;;;1.83;1.25;;;30.90;47.80;;;;;;4963955;28;20034;-66
2023/07/07 11:37:14;;;;;;;2.67;1.50;;;30.80;47.40;;;;;;4961662;28;20027;-66
2023/07/07 11:40:06;;;;;;;3.50;1.38;;;30.70;48.50;;;;;;4960127;28;20035;-66
2023/07/07 11:43:03;;;;;;;2.58;1.30;;;30.70;49.00;;;;;;4959979;28;20105;-66
2023/07/07 11:45:36;;;;;;;3.47;1.48;;;30.60;49.40;;;;;;4953608;28;20023;-66
2023/07/07 11:48:24;;;;;;;3.33;1.50;;;30.40;49.30;;;;;;4953299;28;20444;-66
2023/07/07 11:51:22;;;;;;;2.70;1.63;;;30.40;49.60;;;;;;4965148;28;20432;-67
2023/07/07 11:54:17;;;;;;;4.15;1.48;;;30.20;50.00;;;;;;4961898;28;20429;-65
2023/07/07 11:57:28;;;;;;;5.53;1.70;;;30.10;47.70;;;;;;4956537;28;20023;-65
2023/07/07 11:59:57;;;;;;;3.17;1.40;;;29.90;49.60;;;;;;4950608;28;20038;-66
2023/07/07 12:02:29;;;;;;;2.03;1.45;;;30.10;50.10;;;;;;4968242;28;20058;-66
2023/07/07 12:04:59;;;;;;;2.78;1.52;;;30.20;49.30;;;;;;4973478;28;20023;-66
2023/07/07 12:07:40;;;;;;;2.60;1.80;;;30.20;50.70;;;;;;4966831;28;20085;-67
2023/07/07 12:10:26;;;;;;;6.63;1.98;;;30.10;49.00;;;;;;4965629;28;20453;-66
2023/07/07 12:12:55;;;;;;;2.75;1.75;;;30.00;49.30;;;;;;4966961;28;20444;-66
2023/07/07 12:15:25;;;;;;;3.13;1.70;;;30.00;50.00;;;;;;4971047;28;20484;-66
2023/07/07 12:18:28;;;;;;;3.38;1.55;;;29.90;48.70;;;;;;4960263;28;20440;-66
2023/07/07 12:21:14;;;;;;;3.22;1.73;;;29.90;48.50;;;;;;4970727;28;20026;-67
2023/07/07 12:23:48;;;;;;;3.25;1.85;;;29.70;48.30;;;;;;4965616;28;20034;-65
2023/07/07 12:26:27;;;;;;;1.65;1.10;;;29.60;48.50;;;;;;4961205;28;20107;-64
2023/07/07 12:28:57;;;;;;;4.32;1.25;;;29.60;49.00;;;;;;4971980;28;20030;-66
2023/07/07 12:31:25;;;;;;;2.80;1.80;;;29.50;49.40;;;;;;4969737;28;20019;-66
2023/07/07 12:33:51;;;;;;;5.53;1.38;;;29.40;48.50;;;;;;4961810;28;20030;-65
2023/07/07 12:36:24;;;;;;;3.00;1.52;;;29.60;50.40;;;;;;4948738;28;20556;-66
2023/07/07 12:38:54;;;;;;;2.35;1.40;;;29.60;49.90;;;;;;4972700;28;20093;-67
2023/07/07 12:41:24;;;;;;;2.40;1.55;;;29.80;48.90;;;;;;4961944;28;20481;-66
2023/07/07 12:43:57;;;;;;;2.53;1.52;;;29.50;47.70;;;;;;4967922;28;20073;-64
2023/07/07 12:46:29;;;;;;;3.85;1.15;;;29.50;48.00;;;;;;4966115;28;20033;-66
2023/07/07 12:48:58;;;;;;;2.25;1.55;;;29.40;48.60;;;;;;4963715;28;20026;-66
2023/07/07 12:51:27;;;;;;;3.05;1.60;;;29.50;50.00;;;;;;4960414;28;20033;-66
2023/07/07 12:53:54;;;;;;;1.83;1.35;;;29.50;51.40;;;;;;4968411;28;20461;-65
2023/07/07 12:56:23;;;;;;;2.25;1.42;;;29.50;49.00;;;;;;4968311;28;20042;-67
2023/07/07 12:59:01;;;;;;;1.77;1.20;;;29.60;50.00;;;;;;4973609;28;20409;-67
2023/07/07 13:01:40;;;;;;;2.20;1.30;;;29.50;49.30;;;;;;4968111;28;20050;-66
2023/07/07 13:04:09;;;;;;;2.05;1.40;;;29.40;50.10;;;;;;4965243;28;20055;-66
2023/07/07 13:06:38;;;;;;;2.78;1.33;;;29.40;50.30;;;;;;4963976;28;20023;-66